CPX412 Details

Departure: Washington Dulles International Airport (KIAD)
Arrival: Miami International Airport (KMIA) at N/A
Route: JDUBB2 GSO J75 CAE J51 SAV J103 OMN HILEY7
Notes:


Current Weather Information
KIAD 191552Z VRB04KT 10SM FEW140 SCT250 32/21 A3002 RMK AO2 SLP163 T03170206
KMIA 191553Z 10011KT 10SM SCT035 BKN200 32/22 A3007 RMK AO2 SLP184 T03170222